createdAt,value
2017-04-22T00:00:14.328Z,0
2017-04-22T00:00:40.408Z,0
2017-04-22T00:01:06.491Z,0
2017-04-22T00:01:32.689Z,0
2017-04-22T00:01:58.801Z,0
2017-04-22T00:02:24.928Z,0
2017-04-22T00:02:51.010Z,0
2017-04-22T00:03:17.116Z,0
2017-04-22T00:03:43.246Z,0
2017-04-22T00:04:09.353Z,0
2017-04-22T00:04:35.462Z,0
2017-04-22T00:05:01.608Z,0
2017-04-22T00:05:27.691Z,0
2017-04-22T00:05:53.772Z,0
2017-04-22T00:06:20.011Z,0
2017-04-22T00:06:46.094Z,0
2017-04-22T00:07:12.175Z,0
2017-04-22T00:07:38.284Z,0
2017-04-22T00:08:04.391Z,0
2017-04-22T00:08:30.494Z,0
2017-04-22T00:08:56.604Z,0
2017-04-22T00:09:22.703Z,0
2017-04-22T00:09:48.807Z,0
2017-04-22T00:10:14.890Z,0
2017-04-22T00:10:40.997Z,0
2017-04-22T00:11:07.103Z,0
2017-04-22T00:11:33.231Z,0
2017-04-22T00:11:59.337Z,0
2017-04-22T00:12:25.441Z,0
2017-04-22T00:12:51.618Z,0
2017-04-22T00:13:17.751Z,0
2017-04-22T00:13:43.910Z,0
2017-04-22T00:14:10.303Z,0
2017-04-22T00:14:36.453Z,0
2017-04-22T00:15:02.583Z,0
2017-04-22T00:15:28.689Z,0
2017-04-22T00:15:54.795Z,0
2017-04-22T00:16:21.129Z,0
2017-04-22T00:16:47.234Z,0
2017-04-22T00:17:13.341Z,0
2017-04-22T00:17:39.448Z,0
2017-04-22T00:18:05.578Z,0
2017-04-22T00:18:31.707Z,0
2017-04-22T00:18:57.815Z,0
2017-04-22T00:19:23.922Z,0
2017-04-22T00:19:50.004Z,0
2017-04-22T00:20:16.086Z,0
2017-04-22T00:20:42.167Z,0
2017-04-22T00:21:08.254Z,0
2017-04-22T00:21:34.336Z,0
2017-04-22T00:22:00.449Z,0
2017-04-22T00:22:26.604Z,0
2017-04-22T00:22:52.712Z,0
2017-04-22T00:23:18.796Z,0
2017-04-22T00:23:44.902Z,0
2017-04-22T00:24:10.986Z,0
2017-04-22T00:24:37.092Z,0
2017-04-22T00:25:03.176Z,0
2017-04-22T00:25:29.279Z,0
2017-04-22T00:25:55.363Z,0
2017-04-22T00:26:21.468Z,0
2017-04-22T00:26:47.573Z,0
2017-04-22T00:27:13.679Z,0
2017-04-22T00:27:39.784Z,0
2017-04-22T00:28:05.887Z,0
2017-04-22T00:28:31.992Z,0
2017-04-22T00:28:58.143Z,0
2017-04-22T00:29:24.272Z,0
2017-04-22T00:29:50.378Z,0
2017-04-22T00:30:16.461Z,0
2017-04-22T00:30:42.543Z,0
2017-04-22T00:31:08.626Z,0
2017-04-22T00:31:34.734Z,0
2017-04-22T00:32:00.820Z,0
2017-04-22T00:32:27.055Z,0
2017-04-22T00:32:53.162Z,0
2017-04-22T00:33:19.264Z,0
2017-04-22T00:33:45.394Z,0
2017-04-22T00:34:11.500Z,0
2017-04-22T00:34:37.606Z,0
2017-04-22T00:35:03.759Z,0
2017-04-22T00:35:29.841Z,0
2017-04-22T00:35:55.969Z,0
2017-04-22T00:36:22.052Z,0
2017-04-22T00:36:48.159Z,0
2017-04-22T00:37:14.262Z,0
2017-04-22T00:37:40.344Z,0
2017-04-22T00:38:06.468Z,0
2017-04-22T00:38:32.638Z,0
2017-04-22T00:38:58.787Z,0
2017-04-22T00:39:24.966Z,0
2017-04-22T00:39:51.096Z,0
2017-04-22T00:40:17.180Z,0
2017-04-22T00:40:43.327Z,0
2017-04-22T00:41:09.423Z,0
2017-04-22T00:41:35.643Z,0
2017-04-22T00:42:01.774Z,0
2017-04-22T00:42:27.911Z,0
2017-04-22T00:42:54.016Z,0
2017-04-22T00:43:20.137Z,0
2017-04-22T00:43:46.326Z,0
2017-04-22T00:44:12.429Z,0
2017-04-22T00:44:38.585Z,0
2017-04-22T00:45:04.836Z,0
2017-04-22T00:45:30.944Z,0
2017-04-22T00:45:57.051Z,0
2017-04-22T00:46:23.146Z,0
2017-04-22T00:46:49.253Z,0
2017-04-22T00:47:15.364Z,0
2017-04-22T00:47:41.471Z,0
2017-04-22T00:48:07.615Z,0
2017-04-22T00:48:33.770Z,0
2017-04-22T00:48:59.901Z,0
2017-04-22T00:49:26.055Z,0
2017-04-22T00:49:52.135Z,0
2017-04-22T00:50:18.289Z,0
2017-04-22T00:50:44.396Z,0
2017-04-22T00:51:10.478Z,0
2017-04-22T00:51:36.562Z,0
2017-04-22T00:52:02.642Z,0
2017-04-22T00:52:28.747Z,0
2017-04-22T00:52:54.853Z,0
2017-04-22T00:53:20.965Z,0
2017-04-22T00:53:47.073Z,0
2017-04-22T00:54:13.325Z,0
2017-04-22T00:54:39.433Z,0
2017-04-22T00:55:05.539Z,0
2017-04-22T00:55:31.646Z,0
2017-04-22T00:55:57.729Z,0
2017-04-22T00:56:23.836Z,0
2017-04-22T00:56:49.937Z,0
2017-04-22T00:57:16.021Z,0
2017-04-22T00:57:42.152Z,0
2017-04-22T00:58:08.303Z,0
2017-04-22T00:58:34.431Z,0
2017-04-22T00:59:00.536Z,0
2017-04-22T00:59:26.641Z,0
2017-04-22T00:59:52.746Z,0
2017-04-22T01:00:18.852Z,0
2017-04-22T01:00:44.958Z,0
2017-04-22T01:01:11.039Z,0
2017-04-22T01:01:37.125Z,0
2017-04-22T01:02:03.231Z,0
2017-04-22T01:02:29.337Z,0
2017-04-22T01:02:55.420Z,0
2017-04-22T01:03:21.504Z,0
2017-04-22T01:03:47.634Z,0
2017-04-22T01:04:13.788Z,0
2017-04-22T01:04:39.913Z,0
2017-04-22T01:05:06.018Z,0
2017-04-22T01:05:32.123Z,0
2017-04-22T01:05:58.231Z,0
2017-04-22T01:06:24.360Z,0
2017-04-22T01:06:50.441Z,0
2017-04-22T01:07:16.544Z,0
2017-04-22T01:07:42.651Z,0
2017-04-22T01:08:08.759Z,0
2017-04-22T01:08:34.867Z,0
2017-04-22T01:09:00.970Z,0
2017-04-22T01:09:27.107Z,0
2017-04-22T01:09:53.189Z,0
2017-04-22T01:10:19.294Z,0
2017-04-22T01:10:45.401Z,0
2017-04-22T01:11:11.528Z,0
2017-04-22T01:11:37.607Z,0
2017-04-22T01:12:03.748Z,0
2017-04-22T01:12:29.882Z,0
2017-04-22T01:12:56.031Z,0
2017-04-22T01:13:22.137Z,0
2017-04-22T01:13:48.269Z,0
2017-04-22T01:14:14.388Z,0
2017-04-22T01:14:40.515Z,0
2017-04-22T01:15:06.619Z,0
2017-04-22T01:15:32.702Z,0
2017-04-22T01:15:58.809Z,0
2017-04-22T01:16:24.893Z,0
2017-04-22T01:16:50.999Z,0
2017-04-22T01:17:17.101Z,0
2017-04-22T01:17:43.185Z,0
2017-04-22T01:18:09.318Z,0
2017-04-22T01:18:35.489Z,0
2017-04-22T01:19:01.590Z,0
2017-04-22T01:19:27.697Z,0
2017-04-22T01:19:53.780Z,0
2017-04-22T01:20:20.064Z,0
2017-04-22T01:20:46.146Z,0
2017-04-22T01:21:12.229Z,0
2017-04-22T01:21:38.309Z,0
2017-04-22T01:22:04.393Z,0
2017-04-22T01:22:30.475Z,0
2017-04-22T01:22:56.581Z,0
2017-04-22T01:23:22.664Z,0
2017-04-22T01:23:48.746Z,0
2017-04-22T01:24:14.900Z,0
2017-04-22T01:24:41.073Z,0
2017-04-22T01:25:07.154Z,0
2017-04-22T01:25:33.261Z,0
2017-04-22T01:25:59.437Z,0
2017-04-22T01:26:25.519Z,0
2017-04-22T01:26:51.604Z,0
2017-04-22T01:27:17.686Z,0
2017-04-22T01:27:43.816Z,0
2017-04-22T01:28:09.919Z,0
2017-04-22T01:28:36.067Z,0
2017-04-22T01:29:02.193Z,0
2017-04-22T01:29:28.301Z,0
2017-04-22T01:29:54.409Z,0
2017-04-22T01:30:20.614Z,0
2017-04-22T01:30:46.693Z,0
2017-04-22T01:31:12.775Z,0
2017-04-22T01:31:38.904Z,0
2017-04-22T01:32:04.988Z,0
2017-04-22T01:32:31.135Z,0
2017-04-22T01:32:57.242Z,0
2017-04-22T01:33:23.368Z,0
2017-04-22T01:33:49.543Z,0
2017-04-22T01:34:15.648Z,0
2017-04-22T01:34:41.798Z,0
2017-04-22T01:35:07.926Z,0
2017-04-22T01:35:34.032Z,0
2017-04-22T01:36:00.161Z,0
2017-04-22T01:36:26.245Z,0
2017-04-22T01:36:52.353Z,0
2017-04-22T01:37:18.505Z,0
2017-04-22T01:37:44.611Z,0
2017-04-22T01:38:10.716Z,0
2017-04-22T01:38:36.823Z,0
2017-04-22T01:39:02.928Z,0
2017-04-22T01:39:29.056Z,0
2017-04-22T01:39:55.159Z,0
2017-04-22T01:40:21.264Z,0
2017-04-22T01:40:47.450Z,0
2017-04-22T01:41:13.532Z,0
2017-04-22T01:41:39.612Z,0
2017-04-22T01:42:05.719Z,0
2017-04-22T01:42:31.803Z,0
2017-04-22T01:42:57.937Z,0
2017-04-22T01:43:24.086Z,0
2017-04-22T01:43:50.193Z,0
2017-04-22T01:44:16.301Z,0
2017-04-22T01:44:42.430Z,0
2017-04-22T01:45:08.600Z,0
2017-04-22T01:45:34.682Z,0
2017-04-22T01:46:00.763Z,0
2017-04-22T01:46:26.870Z,0
2017-04-22T01:46:52.952Z,0
2017-04-22T01:47:19.119Z,0
2017-04-22T01:47:45.225Z,0
2017-04-22T01:48:11.331Z,0
2017-04-22T01:48:37.461Z,0
2017-04-22T01:49:03.588Z,0
2017-04-22T01:49:29.727Z,0
2017-04-22T01:49:55.830Z,0
2017-04-22T01:50:21.938Z,0
2017-04-22T01:50:48.062Z,0
2017-04-22T01:51:14.142Z,0
2017-04-22T01:51:40.274Z,0
2017-04-22T01:52:06.379Z,0
2017-04-22T01:52:32.461Z,0
2017-04-22T01:52:58.589Z,0
2017-04-22T01:53:24.675Z,0
2017-04-22T01:53:50.778Z,0
2017-04-22T01:54:16.861Z,0
2017-04-22T01:54:42.964Z,0
2017-04-22T01:55:09.069Z,0
2017-04-22T01:55:35.155Z,0
2017-04-22T01:56:01.305Z,0
2017-04-22T01:56:27.434Z,0
2017-04-22T01:56:53.565Z,0
2017-04-22T01:57:19.647Z,0
2017-04-22T01:57:45.775Z,0
2017-04-22T01:58:11.878Z,0
2017-04-22T01:58:37.962Z,0
2017-04-22T01:59:04.116Z,0
2017-04-22T01:59:30.243Z,0
2017-04-22T01:59:56.326Z,0
2017-04-22T02:00:22.432Z,0
2017-04-22T02:00:48.572Z,0
2017-04-22T02:01:14.675Z,0
2017-04-22T02:01:40.778Z,0
2017-04-22T02:02:06.863Z,0
2017-04-22T02:02:32.970Z,0
2017-04-22T02:02:59.100Z,0
2017-04-22T02:03:25.208Z,0
2017-04-22T02:03:51.292Z,0
2017-04-22T02:04:17.478Z,0
2017-04-22T02:04:43.583Z,0
2017-04-22T02:05:09.709Z,0
2017-04-22T02:05:35.792Z,0
2017-04-22T02:06:01.874Z,0
2017-04-22T02:06:27.955Z,0
2017-04-22T02:06:54.039Z,0
2017-04-22T02:07:20.122Z,0
2017-04-22T02:07:46.298Z,0
2017-04-22T02:08:12.449Z,0
2017-04-22T02:08:38.555Z,0
2017-04-22T02:09:04.703Z,0
2017-04-22T02:09:30.833Z,0
2017-04-22T02:09:56.940Z,0
2017-04-22T02:10:23.047Z,0
2017-04-22T02:10:49.153Z,0
2017-04-22T02:11:15.318Z,0
2017-04-22T02:11:41.421Z,0
2017-04-22T02:12:07.501Z,0
2017-04-22T02:12:33.673Z,0
2017-04-22T02:12:59.803Z,0
2017-04-22T02:13:25.907Z,0
2017-04-22T02:13:51.987Z,0
2017-04-22T02:14:18.115Z,0
2017-04-22T02:14:44.223Z,0
2017-04-22T02:15:10.304Z,0
2017-04-22T02:15:36.409Z,0
2017-04-22T02:16:02.491Z,0
2017-04-22T02:16:28.571Z,0
2017-04-22T02:16:54.653Z,0
2017-04-22T02:17:20.779Z,0
2017-04-22T02:17:46.860Z,0
2017-04-22T02:18:12.967Z,0
2017-04-22T02:18:39.096Z,0
2017-04-22T02:19:05.198Z,0
2017-04-22T02:19:31.327Z,0
2017-04-22T02:19:57.432Z,0
2017-04-22T02:20:23.513Z,0
2017-04-22T02:20:49.591Z,0
2017-04-22T02:21:15.673Z,0
2017-04-22T02:21:41.777Z,0
2017-04-22T02:22:07.885Z,0
2017-04-22T02:22:33.965Z,0
2017-04-22T02:23:00.049Z,0
2017-04-22T02:23:26.153Z,0
2017-04-22T02:23:52.260Z,0
2017-04-22T02:24:18.407Z,0
2017-04-22T02:24:44.490Z,0
2017-04-22T02:25:10.618Z,0
2017-04-22T02:25:36.704Z,0
2017-04-22T02:26:02.786Z,0
2017-04-22T02:26:28.911Z,0
2017-04-22T02:26:54.992Z,0
2017-04-22T02:27:21.071Z,0
2017-04-22T02:27:47.154Z,0
2017-04-22T02:28:13.284Z,0
2017-04-22T02:28:39.410Z,0
2017-04-22T02:29:05.492Z,0
2017-04-22T02:29:31.644Z,0
2017-04-22T02:29:57.725Z,0
2017-04-22T02:30:23.863Z,0
2017-04-22T02:30:49.942Z,0
2017-04-22T02:31:16.025Z,0
2017-04-22T02:31:42.107Z,0
2017-04-22T02:32:08.237Z,0
2017-04-22T02:32:34.342Z,0
2017-04-22T02:33:00.444Z,0
2017-04-22T02:33:26.549Z,0
2017-04-22T02:33:52.714Z,0
2017-04-22T02:34:18.798Z,0
2017-04-22T02:34:44.888Z,0
2017-04-22T02:35:11.006Z,0
2017-04-22T02:35:37.111Z,0
2017-04-22T02:36:03.235Z,0
2017-04-22T02:36:29.365Z,0
2017-04-22T02:36:55.471Z,0
2017-04-22T02:37:21.551Z,0
2017-04-22T02:37:47.654Z,0
2017-04-22T02:38:13.782Z,0
2017-04-22T02:38:39.890Z,0
2017-04-22T02:39:06.017Z,0
2017-04-22T02:39:32.125Z,0
2017-04-22T02:39:58.208Z,0
2017-04-22T02:40:24.317Z,0
2017-04-22T02:40:50.424Z,0
2017-04-22T02:41:16.530Z,0
2017-04-22T02:41:42.636Z,0
2017-04-22T02:42:08.715Z,0
2017-04-22T02:42:34.817Z,0
2017-04-22T02:43:00.922Z,0
2017-04-22T02:43:27.006Z,0
2017-04-22T02:43:53.115Z,0
2017-04-22T02:44:19.217Z,0
2017-04-22T02:44:45.298Z,0
2017-04-22T02:45:11.379Z,0
2017-04-22T02:45:37.485Z,0
2017-04-22T02:46:03.586Z,0
2017-04-22T02:46:29.667Z,0
2017-04-22T02:46:55.745Z,0
2017-04-22T02:47:21.827Z,0
2017-04-22T02:47:47.975Z,0
2017-04-22T02:48:14.057Z,0
2017-04-22T02:48:40.175Z,0
2017-04-22T02:49:06.329Z,0
2017-04-22T02:49:32.435Z,0
2017-04-22T02:49:58.518Z,0
2017-04-22T02:50:24.599Z,0
2017-04-22T02:50:50.705Z,0
2017-04-22T02:51:16.831Z,0
2017-04-22T02:51:42.936Z,0
2017-04-22T02:52:09.082Z,0
2017-04-22T02:52:35.260Z,0
2017-04-22T02:53:01.366Z,0
2017-04-22T02:53:27.521Z,0
2017-04-22T02:53:53.680Z,0
2017-04-22T02:54:19.823Z,0
2017-04-22T02:54:45.904Z,0
2017-04-22T02:55:12.055Z,0
2017-04-22T02:55:38.139Z,0
2017-04-22T02:56:04.243Z,0
2017-04-22T02:56:30.348Z,0
2017-04-22T02:56:56.429Z,0
2017-04-22T02:57:22.536Z,0
2017-04-22T02:57:48.735Z,0
2017-04-22T02:58:14.860Z,0
2017-04-22T02:58:40.987Z,0
2017-04-22T02:59:07.071Z,0
2017-04-22T02:59:33.202Z,0
2017-04-22T02:59:59.306Z,0
2017-04-22T03:00:25.387Z,0
2017-04-22T03:00:51.470Z,0
2017-04-22T03:01:17.550Z,0
2017-04-22T03:01:43.635Z,0
2017-04-22T03:02:09.744Z,0
2017-04-22T03:02:35.850Z,0
2017-04-22T03:03:02.002Z,0
2017-04-22T03:03:28.109Z,0
2017-04-22T03:03:54.192Z,0
2017-04-22T03:04:20.298Z,0
2017-04-22T03:04:46.401Z,0
2017-04-22T03:05:12.506Z,0
2017-04-22T03:05:38.611Z,0
2017-04-22T03:06:04.693Z,0
2017-04-22T03:06:30.800Z,0
2017-04-22T03:06:56.973Z,0
2017-04-22T03:07:23.083Z,0
2017-04-22T03:07:49.206Z,0
2017-04-22T03:08:15.311Z,0
2017-04-22T03:08:41.483Z,0
2017-04-22T03:09:07.738Z,0
2017-04-22T03:09:33.889Z,0
2017-04-22T03:10:00.178Z,0
2017-04-22T03:10:26.259Z,0
2017-04-22T03:10:52.339Z,0
2017-04-22T03:11:18.479Z,0
2017-04-22T03:11:44.561Z,0
2017-04-22T03:12:10.688Z,0
2017-04-22T03:12:36.771Z,0
2017-04-22T03:13:02.947Z,0
2017-04-22T03:13:29.071Z,0
2017-04-22T03:13:55.183Z,0
2017-04-22T03:14:21.262Z,0
2017-04-22T03:14:47.367Z,0
2017-04-22T03:15:13.449Z,0
2017-04-22T03:15:39.553Z,0
2017-04-22T03:16:05.636Z,0
2017-04-22T03:16:31.718Z,0
2017-04-22T03:16:57.800Z,0
2017-04-22T03:17:23.883Z,0
2017-04-22T03:17:49.986Z,0
2017-04-22T03:18:16.092Z,0
2017-04-22T03:18:42.196Z,0
2017-04-22T03:19:08.312Z,0
2017-04-22T03:19:34.440Z,0
2017-04-22T03:20:00.543Z,0
2017-04-22T03:20:26.664Z,0
2017-04-22T03:20:52.767Z,0
2017-04-22T03:21:18.850Z,0
2017-04-22T03:21:44.943Z,0
2017-04-22T03:22:11.051Z,0
2017-04-22T03:22:37.153Z,0
2017-04-22T03:23:03.259Z,0
2017-04-22T03:23:29.365Z,0
2017-04-22T03:23:55.470Z,0
2017-04-22T03:24:21.573Z,0
2017-04-22T03:24:47.874Z,0
2017-04-22T03:25:13.984Z,0
2017-04-22T03:25:40.087Z,0
2017-04-22T03:26:06.168Z,0
2017-04-22T03:26:32.274Z,0
2017-04-22T03:26:58.356Z,0
2017-04-22T03:27:24.464Z,0
2017-04-22T03:27:50.568Z,0
2017-04-22T03:28:16.696Z,0
2017-04-22T03:28:42.850Z,0
2017-04-22T03:29:08.981Z,0
2017-04-22T03:29:35.132Z,0
2017-04-22T03:30:01.220Z,0
2017-04-22T03:30:27.298Z,0
2017-04-22T03:30:53.537Z,0
2017-04-22T03:31:19.618Z,0
2017-04-22T03:31:45.699Z,0
2017-04-22T03:32:11.779Z,0
2017-04-22T03:32:37.907Z,0
2017-04-22T03:33:04.040Z,0
2017-04-22T03:33:30.167Z,0
2017-04-22T03:33:56.273Z,0
2017-04-22T03:34:22.423Z,0
2017-04-22T03:34:48.531Z,0
2017-04-22T03:35:14.661Z,0
2017-04-22T03:35:40.767Z,0
2017-04-22T03:36:06.871Z,0
2017-04-22T03:36:33.028Z,0
2017-04-22T03:36:59.134Z,0
2017-04-22T03:37:25.238Z,0
2017-04-22T03:37:51.322Z,0
2017-04-22T03:38:17.427Z,0
2017-04-22T03:38:43.507Z,0
2017-04-22T03:39:09.618Z,0
2017-04-22T03:39:35.743Z,0
2017-04-22T03:40:01.849Z,0
2017-04-22T03:40:27.952Z,0
2017-04-22T03:40:54.058Z,0
2017-04-22T03:41:20.162Z,0
2017-04-22T03:41:46.243Z,0
2017-04-22T03:42:12.327Z,0
2017-04-22T03:42:38.433Z,0
2017-04-22T03:43:04.563Z,0
2017-04-22T03:43:30.716Z,0
2017-04-22T03:43:56.800Z,0
2017-04-22T03:44:22.928Z,4
2017-04-22T03:44:49.010Z,4
2017-04-22T03:45:15.114Z,4
2017-04-22T03:45:41.218Z,4
2017-04-22T03:46:07.321Z,4
2017-04-22T03:46:33.643Z,4
2017-04-22T03:46:59.725Z,4
2017-04-22T03:47:25.829Z,0
2017-04-22T03:47:51.912Z,0
2017-04-22T03:48:17.994Z,0
2017-04-22T03:48:44.169Z,4
2017-04-22T03:49:10.275Z,4
2017-04-22T03:49:36.404Z,4
2017-04-22T03:50:02.508Z,4
2017-04-22T03:50:28.615Z,4
2017-04-22T03:50:54.742Z,4
2017-04-22T03:51:20.845Z,4
2017-04-22T03:51:46.948Z,4
2017-04-22T03:52:13.030Z,4
2017-04-22T03:52:39.112Z,4
2017-04-22T03:53:05.193Z,4
2017-04-22T03:53:31.274Z,8
2017-04-22T03:53:57.358Z,4
2017-04-22T03:54:23.435Z,8
2017-04-22T03:54:49.563Z,8
2017-04-22T03:55:15.644Z,4
2017-04-22T03:55:41.769Z,8
2017-04-22T03:56:07.849Z,12
2017-04-22T03:56:33.933Z,8
2017-04-22T03:57:00.061Z,8
2017-04-22T03:57:26.143Z,12
2017-04-22T03:57:52.249Z,12
2017-04-22T03:58:18.331Z,16
2017-04-22T03:58:44.411Z,16
2017-04-22T03:59:10.500Z,16
2017-04-22T03:59:36.629Z,16
2017-04-22T04:00:02.757Z,16
2017-04-22T04:00:29.183Z,20
2017-04-22T04:00:55.264Z,24
2017-04-22T04:01:21.347Z,24
2017-04-22T04:01:47.454Z,24
2017-04-22T04:02:13.534Z,24
2017-04-22T04:02:39.642Z,28
2017-04-22T04:03:05.749Z,24
2017-04-22T04:03:32.070Z,28
2017-04-22T04:03:58.155Z,32
2017-04-22T04:04:24.261Z,32
2017-04-22T04:04:50.339Z,36
2017-04-22T04:05:16.420Z,36
2017-04-22T04:05:42.501Z,36
2017-04-22T04:06:08.603Z,40
2017-04-22T04:06:34.707Z,40
2017-04-22T04:07:00.788Z,44
2017-04-22T04:07:26.870Z,44
2017-04-22T04:07:52.977Z,52
2017-04-22T04:08:19.135Z,52
2017-04-22T04:08:45.284Z,56
2017-04-22T04:09:11.390Z,56
2017-04-22T04:09:37.519Z,60
2017-04-22T04:10:03.624Z,64
2017-04-22T04:10:29.704Z,68
2017-04-22T04:10:55.807Z,76
2017-04-22T04:11:21.912Z,80
2017-04-22T04:11:48.019Z,88
2017-04-22T04:12:14.115Z,92
2017-04-22T04:12:40.221Z,96
2017-04-22T04:13:06.350Z,104
2017-04-22T04:13:32.452Z,112
2017-04-22T04:13:58.561Z,116
2017-04-22T04:14:24.643Z,120
2017-04-22T04:14:50.715Z,124
2017-04-22T04:15:16.824Z,124
2017-04-22T04:15:42.906Z,128
2017-04-22T04:16:09.012Z,132
2017-04-22T04:16:35.096Z,136
2017-04-22T04:17:01.176Z,144
2017-04-22T04:17:27.257Z,152
2017-04-22T04:17:53.336Z,156
2017-04-22T04:18:19.420Z,164
2017-04-22T04:18:45.500Z,172
2017-04-22T04:19:11.584Z,184
2017-04-22T04:19:37.689Z,192
2017-04-22T04:20:03.763Z,200
2017-04-22T04:20:29.844Z,216
2017-04-22T04:20:55.972Z,224
2017-04-22T04:21:22.055Z,236
2017-04-22T04:21:48.161Z,248
2017-04-22T04:22:14.269Z,260
2017-04-22T04:22:40.373Z,276
2017-04-22T04:23:06.456Z,284
2017-04-22T04:23:32.560Z,296
2017-04-22T04:23:58.663Z,312
2017-04-22T04:24:24.747Z,324
2017-04-22T04:24:50.832Z,332
2017-04-22T04:25:16.914Z,344
2017-04-22T04:25:43.017Z,352
2017-04-22T04:26:09.145Z,364
2017-04-22T04:26:35.463Z,380
2017-04-22T04:27:01.612Z,396
2017-04-22T04:27:27.693Z,404
2017-04-22T04:27:53.801Z,424
2017-04-22T04:28:19.912Z,448
2017-04-22T04:28:46.040Z,472
2017-04-22T04:29:12.122Z,496
2017-04-22T04:29:38.230Z,512
2017-04-22T04:30:04.335Z,520
2017-04-22T04:30:30.423Z,528
2017-04-22T04:30:56.528Z,540
2017-04-22T04:31:22.630Z,552
2017-04-22T04:31:48.713Z,564
2017-04-22T04:32:14.793Z,568
2017-04-22T04:32:40.875Z,580
2017-04-22T04:33:07.076Z,588
2017-04-22T04:33:33.158Z,600
2017-04-22T04:33:59.237Z,616
2017-04-22T04:34:25.320Z,636
2017-04-22T04:34:51.447Z,656
2017-04-22T04:35:17.570Z,676
2017-04-22T04:35:43.677Z,692
2017-04-22T04:36:09.757Z,700
2017-04-22T04:36:35.838Z,708
2017-04-22T04:37:01.965Z,720
2017-04-22T04:37:28.068Z,740
2017-04-22T04:37:54.170Z,768
2017-04-22T04:38:20.275Z,804
2017-04-22T04:38:46.357Z,844
2017-04-22T04:39:12.460Z,884
2017-04-22T04:39:38.590Z,932
2017-04-22T04:40:04.697Z,972
2017-04-22T04:40:30.779Z,1008
2017-04-22T04:40:56.858Z,1052
2017-04-22T04:41:22.986Z,1080
2017-04-22T04:41:49.065Z,1088
2017-04-22T04:42:15.188Z,1100
2017-04-22T04:42:41.292Z,1104
2017-04-22T04:43:07.397Z,1104
2017-04-22T04:43:33.483Z,1112
2017-04-22T04:43:59.584Z,1128
2017-04-22T04:44:25.666Z,1168
2017-04-22T04:44:51.877Z,1208
2017-04-22T04:45:17.959Z,1236
2017-04-22T04:45:44.040Z,1276
2017-04-22T04:46:10.120Z,1316
2017-04-22T04:46:36.204Z,1352
2017-04-22T04:47:02.330Z,1388
2017-04-22T04:47:28.514Z,1424
2017-04-22T04:47:54.644Z,1468
2017-04-22T04:48:20.727Z,1524
2017-04-22T04:48:46.830Z,1580
2017-04-22T04:49:12.934Z,1612
2017-04-22T04:49:39.015Z,1644
2017-04-22T04:50:05.094Z,1696
2017-04-22T04:50:31.174Z,1740
2017-04-22T04:50:57.256Z,1780
2017-04-22T04:51:23.338Z,1840
2017-04-22T04:51:49.446Z,1912
2017-04-22T04:52:15.552Z,1980
2017-04-22T04:52:41.635Z,2048
2017-04-22T04:53:07.716Z,2112
2017-04-22T04:53:33.821Z,2140
2017-04-22T04:53:59.945Z,2148
2017-04-22T04:54:26.050Z,2172
2017-04-22T04:54:52.155Z,2228
2017-04-22T04:55:18.236Z,2268
2017-04-22T04:55:44.316Z,2308
2017-04-22T04:56:10.400Z,2344
2017-04-22T04:56:36.484Z,2352
2017-04-22T04:57:02.566Z,2348
2017-04-22T04:57:28.645Z,2324
2017-04-22T04:57:54.749Z,2312
2017-04-22T04:58:20.830Z,2336
2017-04-22T04:58:46.915Z,2424
2017-04-22T04:59:13.016Z,2516
2017-04-22T04:59:39.098Z,2608
2017-04-22T05:00:05.202Z,2688
2017-04-22T05:00:31.285Z,2788
2017-04-22T05:00:57.367Z,2868
2017-04-22T05:01:23.473Z,2988
2017-04-22T05:01:49.553Z,3116
2017-04-22T05:02:15.634Z,3168
2017-04-22T05:02:41.736Z,3208
2017-04-22T05:03:07.843Z,3212
2017-04-22T05:03:33.947Z,3156
2017-04-22T05:04:00.051Z,3140
2017-04-22T05:04:26.133Z,3152
2017-04-22T05:04:52.217Z,3160
2017-04-22T05:05:18.344Z,3164
2017-04-22T05:05:44.427Z,3184
2017-04-22T05:06:10.509Z,3184
2017-04-22T05:06:36.591Z,3212
2017-04-22T05:07:02.720Z,3300
2017-04-22T05:07:28.845Z,3432
2017-04-22T05:07:54.999Z,3492
2017-04-22T05:08:21.084Z,3528
2017-04-22T05:08:47.188Z,3580
2017-04-22T05:09:13.270Z,3648
2017-04-22T05:09:39.352Z,3748
2017-04-22T05:10:05.432Z,3880
2017-04-22T05:10:31.516Z,4060
2017-04-22T05:10:57.622Z,4380
2017-04-22T05:11:23.704Z,4704
2017-04-22T05:11:49.808Z,4844
2017-04-22T05:12:15.891Z,5060
2017-04-22T05:12:41.971Z,5144
2017-04-22T05:13:08.075Z,5116
2017-04-22T05:13:34.156Z,4956
2017-04-22T05:14:00.237Z,4788
2017-04-22T05:14:26.389Z,4660
2017-04-22T05:14:52.470Z,4508
2017-04-22T05:15:18.554Z,4392
2017-04-22T05:15:44.661Z,4212
2017-04-22T05:16:10.791Z,4096
2017-04-22T05:16:36.895Z,4060
2017-04-22T05:17:02.976Z,4064
2017-04-22T05:17:29.056Z,4088
2017-04-22T05:17:55.138Z,4148
2017-04-22T05:18:21.607Z,4244
2017-04-22T05:18:47.822Z,4356
2017-04-22T05:19:13.926Z,4476
2017-04-22T05:19:40.030Z,4536
2017-04-22T05:20:06.133Z,4580
2017-04-22T05:20:32.214Z,4656
2017-04-22T05:20:58.296Z,4836
2017-04-22T05:21:24.402Z,5076
2017-04-22T05:21:50.482Z,5340
2017-04-22T05:22:16.608Z,5564
2017-04-22T05:22:42.714Z,5696
2017-04-22T05:23:08.821Z,5692
2017-04-22T05:23:34.957Z,5772
2017-04-22T05:24:01.364Z,6092
2017-04-22T05:24:27.494Z,6440
2017-04-22T05:24:53.599Z,6704
2017-04-22T05:25:19.704Z,7080
2017-04-22T05:25:45.787Z,7416
2017-04-22T05:26:11.890Z,7656
2017-04-22T05:26:37.973Z,7812
2017-04-22T05:27:04.056Z,7964
2017-04-22T05:27:30.162Z,8024
2017-04-22T05:27:56.243Z,7948
2017-04-22T05:28:22.349Z,7908
2017-04-22T05:28:48.647Z,7868
2017-04-22T05:29:14.728Z,7680
2017-04-22T05:29:41.105Z,7552
2017-04-22T05:30:07.190Z,7628
2017-04-22T05:30:33.296Z,7704
2017-04-22T05:30:59.403Z,7720
2017-04-22T05:31:25.508Z,7760
2017-04-22T05:31:51.612Z,7820
2017-04-22T05:32:17.733Z,7988
2017-04-22T05:32:43.862Z,8196
2017-04-22T05:33:09.992Z,8272
2017-04-22T05:33:36.075Z,8212
2017-04-22T05:34:02.157Z,8092
2017-04-22T05:34:28.260Z,8056
2017-04-22T05:34:54.342Z,8012
2017-04-22T05:35:20.448Z,7956
2017-04-22T05:35:46.553Z,8112
2017-04-22T05:36:12.656Z,8304
2017-04-22T05:36:38.761Z,8580
2017-04-22T05:37:04.842Z,8944
2017-04-22T05:37:30.944Z,9196
2017-04-22T05:37:57.025Z,9472
2017-04-22T05:38:23.128Z,9688
2017-04-22T05:38:49.256Z,9944
2017-04-22T05:39:15.386Z,10244
2017-04-22T05:39:41.539Z,10664
2017-04-22T05:40:07.643Z,10940
2017-04-22T05:40:33.748Z,10996
2017-04-22T05:40:59.832Z,10860
2017-04-22T05:41:25.988Z,10632
2017-04-22T05:41:52.068Z,10480
2017-04-22T05:42:18.149Z,10572
2017-04-22T05:42:44.232Z,10860
2017-04-22T05:43:10.381Z,11016
2017-04-22T05:43:36.579Z,11036
2017-04-22T05:44:02.662Z,10852
2017-04-22T05:44:28.745Z,10592
2017-04-22T05:44:54.898Z,10548
2017-04-22T05:45:21.003Z,10752
2017-04-22T05:45:47.089Z,10688
2017-04-22T05:46:13.167Z,10892
2017-04-22T05:46:39.248Z,11068
2017-04-22T05:47:05.353Z,10808
2017-04-22T05:47:31.499Z,10344
2017-04-22T05:47:57.602Z,9772
2017-04-22T05:48:23.707Z,9160
2017-04-22T05:48:49.861Z,8444
2017-04-22T05:49:15.990Z,7760
2017-04-22T05:49:42.096Z,7064
2017-04-22T05:50:08.232Z,6780
2017-04-22T05:50:34.336Z,6804
2017-04-22T05:51:00.417Z,7016
2017-04-22T05:51:26.525Z,7184
2017-04-22T05:51:52.608Z,7500
2017-04-22T05:52:18.715Z,7920
2017-04-22T05:52:44.819Z,8232
2017-04-22T05:53:10.900Z,8384
2017-04-22T05:53:36.986Z,8832
2017-04-22T05:54:03.443Z,9160
2017-04-22T05:54:29.594Z,9196
2017-04-22T05:54:55.677Z,9436
2017-04-22T05:55:21.782Z,9624
2017-04-22T05:55:47.888Z,9968
2017-04-22T05:56:13.970Z,10480
2017-04-22T05:56:40.100Z,10776
2017-04-22T05:57:06.183Z,10748
2017-04-22T05:57:32.265Z,11044
2017-04-22T05:57:58.370Z,10820
2017-04-22T05:58:24.524Z,10336
2017-04-22T05:58:50.628Z,9892
2017-04-22T05:59:16.735Z,9456
2017-04-22T05:59:42.865Z,8808
2017-04-22T06:00:08.996Z,8384
2017-04-22T06:00:35.075Z,7668
2017-04-22T06:01:01.158Z,7380
2017-04-22T06:01:27.305Z,7000
2017-04-22T06:01:53.387Z,6840
2017-04-22T06:02:19.494Z,6800
2017-04-22T06:02:45.577Z,6980
2017-04-22T06:03:11.681Z,7000
2017-04-22T06:03:37.810Z,7064
2017-04-22T06:04:03.895Z,7032
2017-04-22T06:04:30.023Z,7076
2017-04-22T06:04:56.105Z,7104
2017-04-22T06:05:22.210Z,7140
2017-04-22T06:05:48.294Z,7204
2017-04-22T06:06:14.401Z,7216
2017-04-22T06:06:40.529Z,7204
2017-04-22T06:07:06.613Z,7212
2017-04-22T06:07:32.696Z,7236
2017-04-22T06:07:58.821Z,7224
2017-04-22T06:08:24.948Z,7188
2017-04-22T06:08:51.054Z,7184
2017-04-22T06:09:17.140Z,7204
2017-04-22T06:09:43.240Z,7240
2017-04-22T06:10:09.347Z,7280
2017-04-22T06:10:35.426Z,7312
2017-04-22T06:11:01.509Z,7332
2017-04-22T06:11:27.615Z,7340
2017-04-22T06:11:53.697Z,7344
2017-04-22T06:12:19.802Z,7364
2017-04-22T06:12:45.937Z,7452